Terminal Aerodrome Forecast
Issued by NWS

Home | Current Version | Previous Version | Text Only | Print | Product List | Glossary On
Versions: 1 2 3 4 5 6 7 8 9 10 11 12 13 14 15
000
FTPA31 PHFO 190543
TAFHNY
TAF
PHNY 190543Z 1906/2006 05020G28KT P6SM FEW025 SCT040
     FM191000 05016G26KT P6SM FEW025 SCT040
     FM191900 05024G30KT P6SM FEW025 SCT040=

USA.gov is the U.S. government's official web portal to all federal, state and local government web resources and services.